createdAt,value
2023-04-29T00:01:00.336Z,7.82
2023-04-29T00:03:28.779Z,7.88
2023-04-29T00:05:57.376Z,6.60
2023-04-29T00:08:26.134Z,6.35
2023-04-29T00:10:54.397Z,6.20
2023-04-29T00:13:22.668Z,7.00
2023-04-29T00:15:50.892Z,8.65
2023-04-29T00:18:19.065Z,6.78
2023-04-29T00:20:47.326Z,6.45
2023-04-29T00:23:15.394Z,5.70
2023-04-29T00:25:43.531Z,6.38
2023-04-29T00:28:11.977Z,6.30
2023-04-29T00:30:40.136Z,5.90
2023-04-29T00:33:08.612Z,6.63
2023-04-29T00:35:37.034Z,9.05
2023-04-29T00:38:05.082Z,8.00
2023-04-29T00:40:33.514Z,8.07
2023-04-29T00:43:01.701Z,7.82
2023-04-29T00:45:30.059Z,7.45
2023-04-29T00:47:58.176Z,6.90
2023-04-29T00:50:26.393Z,6.75
2023-04-29T00:52:56.340Z,7.60
2023-04-29T00:55:25.265Z,8.07
2023-04-29T00:57:54.054Z,7.97
2023-04-29T01:00:22.497Z,8.48
2023-04-29T01:02:51.068Z,9.77
2023-04-29T01:05:19.301Z,8.77
2023-04-29T01:08:13.243Z,9.15
2023-04-29T01:11:06.394Z,8.32
2023-04-29T01:13:59.670Z,9.02
2023-04-29T01:16:51.949Z,9.68
2023-04-29T01:19:39.579Z,9.23
2023-04-29T01:22:07.979Z,9.65
2023-04-29T01:24:36.590Z,10.50
2023-04-29T01:27:37.786Z,11.35
2023-04-29T01:30:24.027Z,12.68
2023-04-29T01:33:16.412Z,14.00
2023-04-29T01:35:56.824Z,13.05
2023-04-29T01:38:42.580Z,13.35
2023-04-29T01:41:41.159Z,12.77
2023-04-29T01:44:24.950Z,13.30
2023-04-29T01:46:54.544Z,14.57
2023-04-29T01:49:30.864Z,15.25
2023-04-29T01:51:59.111Z,14.98
2023-04-29T01:54:27.420Z,14.57
2023-04-29T01:56:57.176Z,13.70
2023-04-29T01:59:43.793Z,14.90
2023-04-29T02:02:32.138Z,12.32
2023-04-29T02:05:10.791Z,12.35
2023-04-29T02:07:45.645Z,13.10
2023-04-29T02:10:13.980Z,12.77
2023-04-29T02:12:44.396Z,12.27
2023-04-29T02:15:13.118Z,11.35
2023-04-29T02:17:41.513Z,10.98
2023-04-29T02:20:10.237Z,11.45
2023-04-29T02:22:38.512Z,11.20
2023-04-29T02:25:07.108Z,10.70
2023-04-29T02:27:35.422Z,10.32
2023-04-29T02:30:04.215Z,10.13
2023-04-29T02:32:32.849Z,10.00
2023-04-29T02:35:01.256Z,10.82
2023-04-29T02:37:29.788Z,11.70
2023-04-29T02:39:58.035Z,13.07
2023-04-29T02:42:26.756Z,10.73
2023-04-29T02:44:54.894Z,11.85
2023-04-29T02:47:23.237Z,12.18
2023-04-29T02:49:51.868Z,11.05
2023-04-29T02:52:20.126Z,10.27
2023-04-29T02:54:49.450Z,9.90
2023-04-29T02:57:17.912Z,8.80
2023-04-29T02:59:46.073Z,8.90
2023-04-29T03:02:14.466Z,10.02
2023-04-29T03:04:44.903Z,8.60
2023-04-29T03:07:13.360Z,9.18
2023-04-29T03:09:41.450Z,9.15
2023-04-29T03:12:09.807Z,9.00
2023-04-29T03:14:38.147Z,10.18
2023-04-29T03:17:06.416Z,10.40
2023-04-29T03:19:34.788Z,11.10
2023-04-29T03:22:03.032Z,10.70
2023-04-29T03:24:31.620Z,10.02
2023-04-29T03:26:59.965Z,9.52
2023-04-29T03:29:28.220Z,10.77
2023-04-29T03:31:57.146Z,10.93
2023-04-29T03:34:25.696Z,12.18
2023-04-29T03:37:09.778Z,10.90
2023-04-29T03:39:41.131Z,10.40
2023-04-29T03:42:09.626Z,10.30
2023-04-29T03:44:37.686Z,9.07
2023-04-29T03:47:05.894Z,11.02
2023-04-29T03:49:34.180Z,10.48
2023-04-29T03:52:02.704Z,10.18
2023-04-29T03:54:30.914Z,9.80
2023-04-29T03:56:59.132Z,8.68
2023-04-29T03:59:27.468Z,9.43
2023-04-29T04:01:56.012Z,9.15
2023-04-29T04:04:24.557Z,10.30
2023-04-29T04:06:52.917Z,10.13
2023-04-29T04:09:25.182Z,9.00
2023-04-29T04:11:53.529Z,8.65
2023-04-29T04:14:21.867Z,10.52
2023-04-29T04:16:51.138Z,10.07
2023-04-29T04:19:19.426Z,9.60
2023-04-29T04:21:48.085Z,9.95
2023-04-29T04:24:16.230Z,9.25
2023-04-29T04:26:44.517Z,9.38
2023-04-29T04:29:36.338Z,9.15
2023-04-29T04:32:17.846Z,9.00
2023-04-29T04:34:46.097Z,9.75
2023-04-29T04:37:14.651Z,10.30
2023-04-29T04:39:47.937Z,10.57
2023-04-29T04:42:17.098Z,9.75
2023-04-29T04:44:51.665Z,12.20
2023-04-29T04:47:49.218Z,9.90
2023-04-29T04:50:30.987Z,11.27
2023-04-29T04:52:59.240Z,10.82
2023-04-29T04:55:50.060Z,11.20
2023-04-29T04:58:19.033Z,9.35
2023-04-29T05:00:47.272Z,10.10
2023-04-29T05:03:15.770Z,10.73
2023-04-29T05:05:44.088Z,9.88
2023-04-29T05:08:12.635Z,10.75
2023-04-29T05:10:47.823Z,9.45
2023-04-29T05:13:17.086Z,10.82
2023-04-29T05:15:45.782Z,10.85
2023-04-29T05:18:18.456Z,8.63
2023-04-29T05:20:49.655Z,11.57
2023-04-29T05:23:18.124Z,9.98
2023-04-29T05:25:47.721Z,9.93
2023-04-29T05:28:18.341Z,10.32
2023-04-29T05:30:47.059Z,9.98
2023-04-29T05:33:15.499Z,10.02
2023-04-29T05:35:44.800Z,9.93
2023-04-29T05:38:13.363Z,8.82
2023-04-29T05:43:36.888Z,8.40
2023-04-29T05:46:06.252Z,8.55
2023-04-29T05:48:34.509Z,9.15
2023-04-29T05:51:03.128Z,9.27
2023-04-29T05:53:31.684Z,9.40
2023-04-29T05:56:00.132Z,9.88
2023-04-29T05:58:28.471Z,8.55
2023-04-29T06:00:59.312Z,9.32
2023-04-29T06:03:29.073Z,10.03
2023-04-29T06:06:16.846Z,11.25
2023-04-29T06:09:02.143Z,9.80
2023-04-29T06:11:32.271Z,8.80
2023-04-29T06:14:02.738Z,10.07
2023-04-29T06:16:31.199Z,8.98
2023-04-29T06:18:59.920Z,9.45
2023-04-29T06:21:29.300Z,10.43
2023-04-29T06:23:58.031Z,10.23
2023-04-29T06:26:26.255Z,9.88
2023-04-29T06:28:54.348Z,9.73
2023-04-29T06:31:23.312Z,9.57
2023-04-29T06:33:56.229Z,10.73
2023-04-29T06:36:25.195Z,11.25
2023-04-29T06:39:28.449Z,10.27
2023-04-29T06:42:14.884Z,9.80
2023-04-29T06:45:01.486Z,10.82
2023-04-29T06:47:41.990Z,9.93
2023-04-29T06:50:14.537Z,12.23
2023-04-29T06:52:44.772Z,14.27
2023-04-29T06:55:13.097Z,15.77
2023-04-29T06:57:43.695Z,15.90
2023-04-29T07:00:15.504Z,15.38
2023-04-29T07:02:44.242Z,17.10
2023-04-29T07:05:12.625Z,14.40
2023-04-29T07:07:40.928Z,14.68
2023-04-29T07:10:09.654Z,12.90
2023-04-29T07:12:37.868Z,13.63
2023-04-29T07:15:06.453Z,13.75
2023-04-29T07:17:34.701Z,15.57
2023-04-29T07:20:03.320Z,14.40
2023-04-29T07:22:31.747Z,13.05
2023-04-29T07:24:59.889Z,13.40
2023-04-29T07:27:28.243Z,30.77
2023-04-29T07:29:56.609Z,46.70
2023-04-29T07:32:25.126Z,41.90
2023-04-29T07:34:53.895Z,32.35
2023-04-29T07:37:22.612Z,26.67
2023-04-29T07:39:51.605Z,20.40
2023-04-29T07:42:22.119Z,16.40
2023-04-29T07:44:50.586Z,12.82
2023-04-29T07:47:20.315Z,14.10
2023-04-29T07:49:48.769Z,13.43
2023-04-29T07:52:17.236Z,13.80
2023-04-29T07:54:45.641Z,14.52
2023-04-29T07:57:13.876Z,15.43
2023-04-29T07:59:42.385Z,14.50
2023-04-29T08:02:10.692Z,14.70
2023-04-29T08:04:41.182Z,14.50
2023-04-29T08:07:12.095Z,13.10
2023-04-29T08:09:40.324Z,12.00
2023-04-29T08:12:11.236Z,15.25
2023-04-29T08:14:41.613Z,13.57
2023-04-29T08:17:09.980Z,13.57
2023-04-29T08:19:38.557Z,13.43
2023-04-29T08:22:06.725Z,13.10
2023-04-29T08:24:38.333Z,16.13
2023-04-29T08:27:06.602Z,18.95
2023-04-29T08:29:34.958Z,16.10
2023-04-29T08:32:03.188Z,13.55
2023-04-29T08:34:32.262Z,12.75
2023-04-29T08:37:00.641Z,12.38
2023-04-29T08:39:32.046Z,10.85
2023-04-29T08:42:00.538Z,10.37
2023-04-29T08:44:28.778Z,10.23
2023-04-29T08:47:00.214Z,10.40
2023-04-29T08:49:29.858Z,11.68
2023-04-29T08:51:58.176Z,10.50
2023-04-29T08:54:26.493Z,11.27
2023-04-29T08:56:56.050Z,11.85
2023-04-29T08:59:25.313Z,11.30
2023-04-29T09:01:55.792Z,10.85
2023-04-29T09:04:48.816Z,11.77
2023-04-29T09:07:17.967Z,10.82
2023-04-29T09:09:47.142Z,12.07
2023-04-29T09:12:15.417Z,14.13
2023-04-29T09:14:43.676Z,13.05
2023-04-29T09:17:11.965Z,13.27
2023-04-29T09:19:40.312Z,12.38
2023-04-29T09:22:08.481Z,14.48
2023-04-29T09:24:36.837Z,14.23
2023-04-29T09:27:05.080Z,13.88
2023-04-29T09:29:33.446Z,13.82
2023-04-29T09:32:01.762Z,15.85
2023-04-29T09:34:36.639Z,15.80
2023-04-29T09:37:05.774Z,15.75
2023-04-29T09:39:40.721Z,16.10
2023-04-29T09:42:09.103Z,14.32
2023-04-29T09:44:37.216Z,13.00
2023-04-29T09:47:10.571Z,10.95
2023-04-29T09:49:41.277Z,10.10
2023-04-29T09:52:14.651Z,9.48
2023-04-29T09:54:44.233Z,10.05
2023-04-29T09:57:13.970Z,11.32
2023-04-29T09:59:43.215Z,9.55
2023-04-29T10:02:19.175Z,9.90
2023-04-29T10:04:53.805Z,10.50
2023-04-29T10:07:23.178Z,9.38
2023-04-29T10:09:51.351Z,9.75
2023-04-29T10:12:23.000Z,10.00
2023-04-29T10:14:55.863Z,8.48
2023-04-29T10:17:46.176Z,6.78
2023-04-29T10:20:18.278Z,5.85
2023-04-29T10:22:50.851Z,5.95
2023-04-29T10:25:23.421Z,7.18
2023-04-29T10:27:52.552Z,5.72
2023-04-29T10:30:22.041Z,5.65
2023-04-29T10:32:52.726Z,5.03
2023-04-29T10:35:22.396Z,5.13
2023-04-29T10:37:51.309Z,4.45
2023-04-29T10:40:31.367Z,4.18
2023-04-29T10:43:00.014Z,5.07
2023-04-29T10:45:28.303Z,5.53
2023-04-29T10:48:05.376Z,5.07
2023-04-29T10:50:34.435Z,3.72
2023-04-29T10:53:06.625Z,4.07
2023-04-29T10:55:39.219Z,4.57
2023-04-29T10:58:26.631Z,4.85
2023-04-29T11:00:55.167Z,8.13
2023-04-29T11:03:49.595Z,4.75
2023-04-29T11:06:18.127Z,4.80
2023-04-29T11:08:59.825Z,4.25
2023-04-29T11:11:28.432Z,5.88
2023-04-29T11:13:56.622Z,4.07
2023-04-29T11:16:27.438Z,4.88
2023-04-29T11:19:21.836Z,7.55
2023-04-29T11:22:04.004Z,4.45
2023-04-29T11:27:03.099Z,4.85
2023-04-29T11:29:33.415Z,4.23
2023-04-29T11:32:03.051Z,4.20
2023-04-29T11:34:32.712Z,5.40
2023-04-29T11:37:01.066Z,4.68
2023-04-29T11:39:29.500Z,6.35
2023-04-29T11:42:20.169Z,4.10
2023-04-29T11:44:52.244Z,4.45
2023-04-29T11:47:31.139Z,4.43
2023-04-29T11:50:06.748Z,4.80
2023-04-29T11:52:38.388Z,5.30
2023-04-29T11:55:09.402Z,4.35
2023-04-29T11:57:38.343Z,4.55
2023-04-29T12:00:09.458Z,4.13
2023-04-29T12:02:38.723Z,5.50
2023-04-29T12:05:09.003Z,4.32
2023-04-29T12:07:37.519Z,3.33
2023-04-29T12:10:10.209Z,4.18
2023-04-29T12:12:39.648Z,4.20
2023-04-29T12:15:09.467Z,3.55
2023-04-29T12:17:38.968Z,4.38
2023-04-29T12:20:08.395Z,4.93
2023-04-29T12:22:37.016Z,3.72
2023-04-29T12:25:06.645Z,4.00
2023-04-29T12:27:40.992Z,4.43
2023-04-29T12:30:10.419Z,4.03
2023-04-29T12:32:39.540Z,4.13
2023-04-29T12:35:15.310Z,5.07
2023-04-29T12:37:43.638Z,3.85
2023-04-29T12:40:16.166Z,4.00
2023-04-29T12:42:44.966Z,3.95
2023-04-29T12:45:30.090Z,3.95
2023-04-29T12:47:58.841Z,3.53
2023-04-29T12:50:34.703Z,3.10
2023-04-29T12:53:06.880Z,3.15
2023-04-29T12:55:38.960Z,2.70
2023-04-29T12:58:07.597Z,3.13
2023-04-29T13:00:35.877Z,3.80
2023-04-29T13:03:04.928Z,2.60
2023-04-29T13:05:33.625Z,3.50
2023-04-29T13:08:02.204Z,3.05
2023-04-29T13:10:30.613Z,4.38
2023-04-29T13:12:58.817Z,2.30
2023-04-29T13:15:27.563Z,56.20
2023-04-29T13:17:55.920Z,5.32
2023-04-29T13:20:24.152Z,8.95
2023-04-29T13:22:52.354Z,3.05
2023-04-29T13:25:20.754Z,3.28
2023-04-29T13:27:52.513Z,5.68
2023-04-29T13:30:20.878Z,2.42
2023-04-29T13:32:55.155Z,2.80
2023-04-29T13:35:23.670Z,2.33
2023-04-29T13:37:52.017Z,2.72
2023-04-29T13:40:21.418Z,3.50
2023-04-29T13:42:53.331Z,3.58
2023-04-29T13:45:29.106Z,3.65
2023-04-29T13:48:09.480Z,4.03
2023-04-29T13:53:31.703Z,2.07
2023-04-29T14:01:26.155Z,3.67
2023-04-29T14:03:56.105Z,4.18
2023-04-29T14:06:27.175Z,5.28
2023-04-29T14:08:55.864Z,3.23
2023-04-29T14:11:24.041Z,2.28
2023-04-29T14:13:52.351Z,3.80
2023-04-29T14:16:21.527Z,3.78
2023-04-29T14:18:50.036Z,4.03
2023-04-29T14:21:18.264Z,5.05
2023-04-29T14:23:46.629Z,3.95
2023-04-29T14:28:46.481Z,3.22
2023-04-29T14:31:14.837Z,2.70
2023-04-29T14:33:43.301Z,3.50
2023-04-29T14:36:11.552Z,3.10
2023-04-29T14:38:39.906Z,3.40
2023-04-29T14:41:08.190Z,2.92
2023-04-29T14:43:37.742Z,3.35
2023-04-29T14:46:06.498Z,4.03
2023-04-29T14:48:35.148Z,4.28
2023-04-29T14:51:03.533Z,3.10
2023-04-29T14:53:31.796Z,3.05
2023-04-29T14:55:59.871Z,3.38
2023-04-29T14:58:28.227Z,3.20
2023-04-29T15:00:59.081Z,3.55
2023-04-29T15:03:27.531Z,2.83
2023-04-29T15:05:56.116Z,3.75
2023-04-29T15:08:24.717Z,4.05
2023-04-29T15:10:52.804Z,2.75
2023-04-29T15:13:20.972Z,3.97
2023-04-29T15:15:50.095Z,3.35
2023-04-29T15:18:18.293Z,3.55
2023-04-29T15:20:46.710Z,3.10
2023-04-29T15:23:14.804Z,3.75
2023-04-29T15:25:43.148Z,3.38
2023-04-29T15:28:11.498Z,4.35
2023-04-29T15:30:39.719Z,3.53
2023-04-29T15:33:08.131Z,3.55
2023-04-29T15:35:36.380Z,3.70
2023-04-29T15:38:04.728Z,3.50
2023-04-29T15:40:33.269Z,7.70
2023-04-29T15:43:01.480Z,3.75
2023-04-29T15:45:29.728Z,2.63
2023-04-29T15:47:58.012Z,3.92
2023-04-29T15:50:26.331Z,3.30
2023-04-29T15:52:54.921Z,4.03
2023-04-29T15:55:23.074Z,3.45
2023-04-29T15:57:51.213Z,3.65
2023-04-29T16:00:19.552Z,3.03
2023-04-29T16:02:47.871Z,3.30
2023-04-29T16:05:16.353Z,3.72
2023-04-29T16:07:44.581Z,4.25
2023-04-29T16:10:12.847Z,3.67
2023-04-29T16:12:41.144Z,4.32
2023-04-29T16:15:09.923Z,4.72
2023-04-29T16:17:38.136Z,4.43
2023-04-29T16:20:06.901Z,4.32
2023-04-29T16:22:35.124Z,4.07
2023-04-29T16:25:03.662Z,4.07
2023-04-29T16:27:31.785Z,3.60
2023-04-29T16:30:00.731Z,3.25
2023-04-29T16:32:33.606Z,3.38
2023-04-29T16:35:02.289Z,4.25
2023-04-29T16:37:30.516Z,3.92
2023-04-29T16:39:58.875Z,2.95
2023-04-29T16:42:27.187Z,3.42
2023-04-29T16:44:55.385Z,4.57
2023-04-29T16:47:23.624Z,3.88
2023-04-29T16:49:52.205Z,4.05
2023-04-29T16:52:20.809Z,4.10
2023-04-29T16:54:48.891Z,3.22
2023-04-29T16:57:17.227Z,2.95
2023-04-29T16:59:45.429Z,4.05
2023-04-29T17:02:14.247Z,3.60
2023-04-29T17:04:42.424Z,3.65
2023-04-29T17:07:10.698Z,4.50
2023-04-29T17:09:39.012Z,3.38
2023-04-29T17:12:07.227Z,3.30
2023-04-29T17:14:35.529Z,3.25
2023-04-29T17:17:03.773Z,3.13
2023-04-29T17:19:32.136Z,3.42
2023-04-29T17:22:00.518Z,3.72
2023-04-29T17:24:28.609Z,3.13
2023-04-29T17:26:56.872Z,3.65
2023-04-29T17:29:25.022Z,3.67
2023-04-29T17:31:53.357Z,3.55
2023-04-29T17:34:21.687Z,3.80
2023-04-29T17:36:56.077Z,3.58
2023-04-29T17:39:24.246Z,5.47
2023-04-29T17:41:52.584Z,5.45
2023-04-29T17:44:23.145Z,4.68
2023-04-29T17:46:51.693Z,5.38
2023-04-29T17:49:19.963Z,4.00
2023-04-29T17:51:48.143Z,5.55
2023-04-29T17:54:16.384Z,5.65
2023-04-29T17:56:44.513Z,6.05
2023-04-29T17:59:12.666Z,5.10
2023-04-29T18:01:41.091Z,6.55
2023-04-29T18:04:09.386Z,6.70
2023-04-29T18:06:37.960Z,6.43
2023-04-29T18:09:06.359Z,6.35
2023-04-29T18:11:34.763Z,6.50
2023-04-29T18:14:02.940Z,5.28
2023-04-29T18:16:31.206Z,6.50
2023-04-29T18:18:59.618Z,7.05
2023-04-29T18:21:28.790Z,9.23
2023-04-29T18:23:57.643Z,8.27
2023-04-29T18:26:25.912Z,5.30
2023-04-29T18:28:54.172Z,6.00
2023-04-29T18:31:22.382Z,5.40
2023-04-29T18:33:50.860Z,4.93
2023-04-29T18:36:19.097Z,5.05
2023-04-29T18:38:47.562Z,7.50
2023-04-29T18:41:15.831Z,6.90
2023-04-29T18:43:44.083Z,8.35
2023-04-29T18:46:12.429Z,12.48
2023-04-29T18:48:40.709Z,9.05
2023-04-29T18:51:08.921Z,9.57
2023-04-29T18:53:37.419Z,12.02
2023-04-29T18:56:05.676Z,7.47
2023-04-29T18:58:33.979Z,10.82
2023-04-29T19:01:02.527Z,9.30
2023-04-29T19:03:31.117Z,19.70
2023-04-29T19:05:59.263Z,10.30
2023-04-29T19:08:27.614Z,14.05
2023-04-29T19:10:56.235Z,13.43
2023-04-29T19:13:25.424Z,12.57
2023-04-29T19:15:53.672Z,12.63
2023-04-29T19:18:22.136Z,15.98
2023-04-29T19:20:50.908Z,11.35
2023-04-29T19:23:19.138Z,31.30
2023-04-29T19:25:47.251Z,32.90
2023-04-29T19:28:15.526Z,27.88
2023-04-29T19:30:43.797Z,28.63
2023-04-29T19:33:12.182Z,21.02
2023-04-29T19:35:40.483Z,11.90
2023-04-29T19:38:08.822Z,14.02
2023-04-29T19:40:37.093Z,12.23
2023-04-29T19:43:05.339Z,11.43
2023-04-29T19:45:33.495Z,12.43
2023-04-29T19:48:03.695Z,12.73
2023-04-29T19:50:32.654Z,16.45
2023-04-29T19:53:01.023Z,20.60
2023-04-29T19:55:29.259Z,20.85
2023-04-29T19:57:57.495Z,19.73
2023-04-29T20:00:25.752Z,16.35
2023-04-29T20:02:54.211Z,8.13
2023-04-29T20:05:22.466Z,8.02
2023-04-29T20:07:50.857Z,6.60
2023-04-29T20:10:19.166Z,6.63
2023-04-29T20:12:47.534Z,8.02
2023-04-29T20:15:15.646Z,14.95
2023-04-29T20:17:44.065Z,12.90
2023-04-29T20:20:12.801Z,7.50
2023-04-29T20:22:43.096Z,7.18
2023-04-29T20:25:11.490Z,6.25
2023-04-29T20:27:39.593Z,7.60
2023-04-29T20:30:08.703Z,9.00
2023-04-29T20:32:37.159Z,11.27
2023-04-29T20:35:05.702Z,9.57
2023-04-29T20:37:33.962Z,6.80
2023-04-29T20:40:02.163Z,7.03
2023-04-29T20:42:30.581Z,7.93
2023-04-29T20:44:58.883Z,9.48
2023-04-29T20:47:27.345Z,11.68
2023-04-29T20:49:55.859Z,9.82
2023-04-29T20:52:24.323Z,8.45
2023-04-29T20:54:52.671Z,9.45
2023-04-29T20:57:20.777Z,16.42
2023-04-29T20:59:49.342Z,18.77
2023-04-29T21:02:18.206Z,15.07
2023-04-29T21:04:46.681Z,6.28
2023-04-29T21:07:14.805Z,9.35
2023-04-29T21:09:43.053Z,12.15
2023-04-29T21:12:11.394Z,8.63
2023-04-29T21:14:40.880Z,7.90
2023-04-29T21:17:11.201Z,8.30
2023-04-29T21:19:39.376Z,7.80
2023-04-29T21:22:07.715Z,7.65
2023-04-29T21:24:35.966Z,6.53
2023-04-29T21:27:04.230Z,6.90
2023-04-29T21:29:32.424Z,5.22
2023-04-29T21:32:00.741Z,4.82
2023-04-29T21:34:29.101Z,4.70
2023-04-29T21:36:57.475Z,6.20
2023-04-29T21:39:25.719Z,5.93
2023-04-29T21:41:54.389Z,5.50
2023-04-29T21:44:23.682Z,5.93
2023-04-29T21:46:53.099Z,4.45
2023-04-29T21:49:21.677Z,6.22
2023-04-29T21:51:50.095Z,6.78
2023-04-29T21:54:18.235Z,7.28
2023-04-29T21:56:49.414Z,8.30
2023-04-29T21:59:17.657Z,6.33
2023-04-29T22:01:48.821Z,5.85
2023-04-29T22:04:17.510Z,5.78
2023-04-29T22:06:45.819Z,6.20
2023-04-29T22:09:14.276Z,5.38
2023-04-29T22:11:42.598Z,5.55
2023-04-29T22:14:10.820Z,6.18
2023-04-29T22:16:39.197Z,6.50
2023-04-29T22:19:07.574Z,7.07
2023-04-29T22:21:35.846Z,6.53
2023-04-29T22:24:04.243Z,6.97
2023-04-29T22:26:32.609Z,5.70
2023-04-29T22:29:00.720Z,4.95
2023-04-29T22:31:28.950Z,5.50
2023-04-29T22:33:57.412Z,5.32
2023-04-29T22:36:25.557Z,4.88
2023-04-29T22:38:53.964Z,5.43
2023-04-29T22:41:22.295Z,5.70
2023-04-29T22:43:50.447Z,5.20
2023-04-29T22:46:18.816Z,5.07
2023-04-29T22:48:47.121Z,6.63
2023-04-29T22:51:15.391Z,5.28
2023-04-29T22:53:43.683Z,4.45
2023-04-29T22:56:12.699Z,5.03
2023-04-29T22:58:40.858Z,5.95
2023-04-29T23:01:11.355Z,3.92
2023-04-29T23:03:40.368Z,5.30
2023-04-29T23:06:08.710Z,5.32
2023-04-29T23:08:36.942Z,4.03
2023-04-29T23:11:05.227Z,3.75
2023-04-29T23:13:33.588Z,4.07
2023-04-29T23:16:01.698Z,3.92
2023-04-29T23:18:30.034Z,3.78
2023-04-29T23:20:58.414Z,3.92
2023-04-29T23:23:26.593Z,3.88
2023-04-29T23:25:54.998Z,4.45
2023-04-29T23:28:23.230Z,4.50
2023-04-29T23:30:51.384Z,5.13
2023-04-29T23:33:19.704Z,3.75
2023-04-29T23:35:54.743Z,3.97
2023-04-29T23:38:23.097Z,5.05
2023-04-29T23:40:51.300Z,4.57
2023-04-29T23:43:19.348Z,4.00
2023-04-29T23:45:47.770Z,4.28
2023-04-29T23:48:15.966Z,5.82
2023-04-29T23:50:44.375Z,5.15
2023-04-29T23:53:12.569Z,5.78
2023-04-29T23:55:40.903Z,4.65
2023-04-29T23:58:09.098Z,4.28
